sensor_id;sensor_type;location;lat;lon;timestamp;P1;durP1;ratioP1;P2;durP2;ratioP2
10381;SDS011;11635;53.636;10.120;2022-12-18T00:01:47;25.00;;;17.50;;
10381;SDS011;11635;53.636;10.120;2022-12-18T00:04:15;22.67;;;15.43;;
10381;SDS011;11635;53.636;10.120;2022-12-18T00:06:42;20.03;;;15.33;;
10381;SDS011;11635;53.636;10.120;2022-12-18T00:09:08;23.47;;;14.87;;
10381;SDS011;11635;53.636;10.120;2022-12-18T00:11:36;24.17;;;16.53;;
10381;SDS011;11635;53.636;10.120;2022-12-18T00:14:03;20.77;;;15.23;;
10381;SDS011;11635;53.636;10.120;2022-12-18T00:16:29;22.47;;;15.03;;
10381;SDS011;11635;53.636;10.120;2022-12-18T00:18:58;23.90;;;15.57;;
10381;SDS011;11635;53.636;10.120;2022-12-18T00:21:25;21.90;;;14.63;;
10381;SDS011;11635;53.636;10.120;2022-12-18T00:23:52;22.43;;;14.83;;
10381;SDS011;11635;53.636;10.120;2022-12-18T00:26:19;27.00;;;15.33;;
10381;SDS011;11635;53.636;10.120;2022-12-18T00:28:48;23.93;;;15.53;;
10381;SDS011;11635;53.636;10.120;2022-12-18T00:31:15;25.93;;;14.60;;
10381;SDS011;11635;53.636;10.120;2022-12-18T00:33:42;20.20;;;14.13;;
10381;SDS011;11635;53.636;10.120;2022-12-18T00:36:09;24.80;;;15.40;;
10381;SDS011;11635;53.636;10.120;2022-12-18T00:38:36;21.83;;;14.83;;
10381;SDS011;11635;53.636;10.120;2022-12-18T00:41:03;19.10;;;13.70;;
10381;SDS011;11635;53.636;10.120;2022-12-18T00:43:30;23.03;;;14.77;;
10381;SDS011;11635;53.636;10.120;2022-12-18T00:45:57;21.67;;;14.47;;
10381;SDS011;11635;53.636;10.120;2022-12-18T00:48:23;19.70;;;14.17;;
10381;SDS011;11635;53.636;10.120;2022-12-18T00:50:49;23.30;;;14.60;;
10381;SDS011;11635;53.636;10.120;2022-12-18T00:53:16;21.57;;;15.13;;
10381;SDS011;11635;53.636;10.120;2022-12-18T00:55:43;26.03;;;15.87;;
10381;SDS011;11635;53.636;10.120;2022-12-18T00:58:10;20.37;;;14.53;;
10381;SDS011;11635;53.636;10.120;2022-12-18T01:00:37;19.57;;;13.87;;
10381;SDS011;11635;53.636;10.120;2022-12-18T01:03:05;21.07;;;13.73;;
10381;SDS011;11635;53.636;10.120;2022-12-18T01:05:32;20.17;;;14.23;;
10381;SDS011;11635;53.636;10.120;2022-12-18T01:07:58;19.97;;;13.10;;
10381;SDS011;11635;53.636;10.120;2022-12-18T01:10:25;21.73;;;14.17;;
10381;SDS011;11635;53.636;10.120;2022-12-18T01:12:51;21.63;;;13.93;;
10381;SDS011;11635;53.636;10.120;2022-12-18T01:15:18;17.73;;;13.33;;
10381;SDS011;11635;53.636;10.120;2022-12-18T01:17:45;19.20;;;13.17;;
10381;SDS011;11635;53.636;10.120;2022-12-18T01:20:13;19.07;;;13.13;;
10381;SDS011;11635;53.636;10.120;2022-12-18T01:22:40;20.30;;;13.37;;
10381;SDS011;11635;53.636;10.120;2022-12-18T01:25:06;21.53;;;14.37;;
10381;SDS011;11635;53.636;10.120;2022-12-18T01:27:33;20.83;;;13.00;;
10381;SDS011;11635;53.636;10.120;2022-12-18T01:29:59;22.27;;;13.70;;
10381;SDS011;11635;53.636;10.120;2022-12-18T01:32:29;17.90;;;12.60;;
10381;SDS011;11635;53.636;10.120;2022-12-18T01:34:55;22.43;;;13.37;;
10381;SDS011;11635;53.636;10.120;2022-12-18T01:37:23;20.40;;;13.30;;
10381;SDS011;11635;53.636;10.120;2022-12-18T01:39:49;17.27;;;13.33;;
10381;SDS011;11635;53.636;10.120;2022-12-18T01:42:17;17.63;;;13.00;;
10381;SDS011;11635;53.636;10.120;2022-12-18T01:47:32;19.53;;;12.77;;
10381;SDS011;11635;53.636;10.120;2022-12-18T01:50:00;17.47;;;12.63;;
10381;SDS011;11635;53.636;10.120;2022-12-18T01:52:30;20.30;;;12.57;;
10381;SDS011;11635;53.636;10.120;2022-12-18T01:54:57;17.33;;;12.70;;
10381;SDS011;11635;53.636;10.120;2022-12-18T01:57:24;17.37;;;12.37;;
10381;SDS011;11635;53.636;10.120;2022-12-18T01:59:52;16.83;;;12.67;;
10381;SDS011;11635;53.636;10.120;2022-12-18T02:02:18;18.73;;;12.50;;
10381;SDS011;11635;53.636;10.120;2022-12-18T02:04:45;20.83;;;12.67;;
10381;SDS011;11635;53.636;10.120;2022-12-18T02:07:18;18.03;;;13.10;;
10381;SDS011;11635;53.636;10.120;2022-12-18T02:09:50;19.93;;;12.87;;
10381;SDS011;11635;53.636;10.120;2022-12-18T02:12:17;17.37;;;13.33;;
10381;SDS011;11635;53.636;10.120;2022-12-18T02:14:47;16.97;;;11.53;;
10381;SDS011;11635;53.636;10.120;2022-12-18T02:17:16;21.27;;;12.47;;
10381;SDS011;11635;53.636;10.120;2022-12-18T02:19:46;18.73;;;12.20;;
10381;SDS011;11635;53.636;10.120;2022-12-18T02:22:20;19.87;;;12.73;;
10381;SDS011;11635;53.636;10.120;2022-12-18T02:24:54;18.17;;;12.07;;
10381;SDS011;11635;53.636;10.120;2022-12-18T02:27:24;16.40;;;11.97;;
10381;SDS011;11635;53.636;10.120;2022-12-18T02:29:51;19.90;;;11.30;;
10381;SDS011;11635;53.636;10.120;2022-12-18T02:32:20;20.47;;;12.43;;
10381;SDS011;11635;53.636;10.120;2022-12-18T02:34:48;15.57;;;11.43;;
10381;SDS011;11635;53.636;10.120;2022-12-18T02:37:16;17.97;;;11.87;;
10381;SDS011;11635;53.636;10.120;2022-12-18T02:39:43;16.73;;;10.90;;
10381;SDS011;11635;53.636;10.120;2022-12-18T02:42:11;18.87;;;12.63;;
10381;SDS011;11635;53.636;10.120;2022-12-18T02:44:42;23.57;;;12.10;;
10381;SDS011;11635;53.636;10.120;2022-12-18T02:47:09;17.43;;;11.07;;
10381;SDS011;11635;53.636;10.120;2022-12-18T02:49:39;16.83;;;10.60;;
10381;SDS011;11635;53.636;10.120;2022-12-18T02:52:09;16.63;;;11.23;;
10381;SDS011;11635;53.636;10.120;2022-12-18T02:57:24;18.47;;;11.10;;
10381;SDS011;11635;53.636;10.120;2022-12-18T02:59:58;17.73;;;11.33;;
10381;SDS011;11635;53.636;10.120;2022-12-18T03:02:27;16.17;;;10.80;;
10381;SDS011;11635;53.636;10.120;2022-12-18T03:04:57;19.13;;;11.33;;
10381;SDS011;11635;53.636;10.120;2022-12-18T03:07:27;15.10;;;10.43;;
10381;SDS011;11635;53.636;10.120;2022-12-18T03:09:59;13.33;;;10.53;;
10381;SDS011;11635;53.636;10.120;2022-12-18T03:12:28;19.43;;;11.60;;
10381;SDS011;11635;53.636;10.120;2022-12-18T03:14:58;17.33;;;10.47;;
10381;SDS011;11635;53.636;10.120;2022-12-18T03:17:26;17.47;;;10.67;;
10381;SDS011;11635;53.636;10.120;2022-12-18T03:19:54;16.10;;;11.13;;
10381;SDS011;11635;53.636;10.120;2022-12-18T03:22:23;17.97;;;10.73;;
10381;SDS011;11635;53.636;10.120;2022-12-18T03:24:50;19.53;;;11.20;;
10381;SDS011;11635;53.636;10.120;2022-12-18T03:27:18;15.93;;;11.10;;
10381;SDS011;11635;53.636;10.120;2022-12-18T03:29:46;18.13;;;10.60;;
10381;SDS011;11635;53.636;10.120;2022-12-18T03:32:17;14.97;;;10.93;;
10381;SDS011;11635;53.636;10.120;2022-12-18T03:34:47;15.83;;;10.93;;
10381;SDS011;11635;53.636;10.120;2022-12-18T03:37:16;17.67;;;10.67;;
10381;SDS011;11635;53.636;10.120;2022-12-18T03:39:42;17.10;;;10.93;;
10381;SDS011;11635;53.636;10.120;2022-12-18T03:42:10;17.63;;;11.33;;
10381;SDS011;11635;53.636;10.120;2022-12-18T03:44:39;14.63;;;10.70;;
10381;SDS011;11635;53.636;10.120;2022-12-18T03:47:08;18.60;;;11.03;;
10381;SDS011;11635;53.636;10.120;2022-12-18T03:49:40;16.53;;;11.23;;
10381;SDS011;11635;53.636;10.120;2022-12-18T03:52:09;17.63;;;11.30;;
10381;SDS011;11635;53.636;10.120;2022-12-18T03:54:37;16.63;;;10.33;;
10381;SDS011;11635;53.636;10.120;2022-12-18T03:57:06;14.77;;;11.30;;
10381;SDS011;11635;53.636;10.120;2022-12-18T03:59:33;15.90;;;10.70;;
10381;SDS011;11635;53.636;10.120;2022-12-18T04:02:00;17.70;;;11.10;;
10381;SDS011;11635;53.636;10.120;2022-12-18T04:04:27;16.30;;;10.53;;
10381;SDS011;11635;53.636;10.120;2022-12-18T04:06:56;16.60;;;11.63;;
10381;SDS011;11635;53.636;10.120;2022-12-18T04:09:23;15.53;;;11.07;;
10381;SDS011;11635;53.636;10.120;2022-12-18T04:11:51;16.57;;;11.43;;
10381;SDS011;11635;53.636;10.120;2022-12-18T04:14:17;18.27;;;11.53;;
10381;SDS011;11635;53.636;10.120;2022-12-18T04:16:43;17.07;;;10.03;;
10381;SDS011;11635;53.636;10.120;2022-12-18T04:19:10;15.77;;;11.03;;
10381;SDS011;11635;53.636;10.120;2022-12-18T04:21:36;18.83;;;11.23;;
10381;SDS011;11635;53.636;10.120;2022-12-18T04:24:04;16.37;;;11.00;;
10381;SDS011;11635;53.636;10.120;2022-12-18T04:26:31;15.83;;;11.27;;
10381;SDS011;11635;53.636;10.120;2022-12-18T04:28:57;17.27;;;11.60;;
10381;SDS011;11635;53.636;10.120;2022-12-18T04:31:24;16.50;;;12.10;;
10381;SDS011;11635;53.636;10.120;2022-12-18T04:33:50;14.83;;;10.57;;
10381;SDS011;11635;53.636;10.120;2022-12-18T04:36:17;18.17;;;12.10;;
10381;SDS011;11635;53.636;10.120;2022-12-18T04:38:43;17.57;;;11.90;;
10381;SDS011;11635;53.636;10.120;2022-12-18T04:41:11;16.03;;;11.67;;
10381;SDS011;11635;53.636;10.120;2022-12-18T04:43:40;16.53;;;11.20;;
10381;SDS011;11635;53.636;10.120;2022-12-18T04:46:07;16.17;;;11.50;;
10381;SDS011;11635;53.636;10.120;2022-12-18T04:48:34;17.50;;;11.50;;
10381;SDS011;11635;53.636;10.120;2022-12-18T04:51:00;15.10;;;11.60;;
10381;SDS011;11635;53.636;10.120;2022-12-18T04:53:27;16.07;;;11.03;;
10381;SDS011;11635;53.636;10.120;2022-12-18T04:56:01;17.37;;;11.43;;
10381;SDS011;11635;53.636;10.120;2022-12-18T04:58:29;17.77;;;11.73;;
10381;SDS011;11635;53.636;10.120;2022-12-18T05:00:56;19.47;;;12.83;;
10381;SDS011;11635;53.636;10.120;2022-12-18T05:03:22;19.23;;;11.97;;
10381;SDS011;11635;53.636;10.120;2022-12-18T05:05:49;18.37;;;11.47;;
10381;SDS011;11635;53.636;10.120;2022-12-18T05:08:15;14.77;;;10.90;;
10381;SDS011;11635;53.636;10.120;2022-12-18T05:10:42;15.97;;;11.10;;
10381;SDS011;11635;53.636;10.120;2022-12-18T05:13:08;19.17;;;12.53;;
10381;SDS011;11635;53.636;10.120;2022-12-18T05:15:36;18.90;;;12.07;;
10381;SDS011;11635;53.636;10.120;2022-12-18T05:18:03;18.50;;;11.83;;
10381;SDS011;11635;53.636;10.120;2022-12-18T05:20:29;18.27;;;11.77;;
10381;SDS011;11635;53.636;10.120;2022-12-18T05:22:56;19.57;;;11.90;;
10381;SDS011;11635;53.636;10.120;2022-12-18T05:25:23;20.47;;;12.63;;
10381;SDS011;11635;53.636;10.120;2022-12-18T05:27:49;18.23;;;12.13;;
10381;SDS011;11635;53.636;10.120;2022-12-18T05:30:16;22.03;;;13.07;;
10381;SDS011;11635;53.636;10.120;2022-12-18T05:32:44;17.10;;;12.77;;
10381;SDS011;11635;53.636;10.120;2022-12-18T05:35:10;21.23;;;12.53;;
10381;SDS011;11635;53.636;10.120;2022-12-18T05:37:37;19.53;;;12.77;;
10381;SDS011;11635;53.636;10.120;2022-12-18T05:40:04;18.97;;;12.03;;
10381;SDS011;11635;53.636;10.120;2022-12-18T05:42:30;17.00;;;11.77;;
10381;SDS011;11635;53.636;10.120;2022-12-18T05:44:57;19.60;;;12.40;;
10381;SDS011;11635;53.636;10.120;2022-12-18T05:47:23;16.10;;;12.37;;
10381;SDS011;11635;53.636;10.120;2022-12-18T05:49:51;19.03;;;12.60;;
10381;SDS011;11635;53.636;10.120;2022-12-18T05:52:17;19.07;;;13.03;;
10381;SDS011;11635;53.636;10.120;2022-12-18T05:54:44;20.87;;;13.93;;
10381;SDS011;11635;53.636;10.120;2022-12-18T05:57:10;19.07;;;13.03;;
10381;SDS011;11635;53.636;10.120;2022-12-18T05:59:36;16.60;;;12.97;;
10381;SDS011;11635;53.636;10.120;2022-12-18T06:02:03;19.63;;;13.07;;
10381;SDS011;11635;53.636;10.120;2022-12-18T06:04:29;23.53;;;13.00;;
10381;SDS011;11635;53.636;10.120;2022-12-18T06:07:00;19.13;;;13.27;;
10381;SDS011;11635;53.636;10.120;2022-12-18T06:09:29;18.83;;;12.73;;
10381;SDS011;11635;53.636;10.120;2022-12-18T06:11:56;15.77;;;10.40;;
10381;SDS011;11635;53.636;10.120;2022-12-18T06:14:23;19.80;;;12.87;;
10381;SDS011;11635;53.636;10.120;2022-12-18T06:16:50;16.63;;;12.50;;
10381;SDS011;11635;53.636;10.120;2022-12-18T06:19:16;20.83;;;13.80;;
10381;SDS011;11635;53.636;10.120;2022-12-18T06:21:43;20.10;;;12.57;;
10381;SDS011;11635;53.636;10.120;2022-12-18T06:24:11;21.63;;;13.90;;
10381;SDS011;11635;53.636;10.120;2022-12-18T06:26:37;18.93;;;12.47;;
10381;SDS011;11635;53.636;10.120;2022-12-18T06:29:04;20.93;;;12.77;;
10381;SDS011;11635;53.636;10.120;2022-12-18T06:31:31;20.23;;;12.73;;
10381;SDS011;11635;53.636;10.120;2022-12-18T06:33:57;17.40;;;12.27;;
10381;SDS011;11635;53.636;10.120;2022-12-18T06:36:24;17.70;;;12.43;;
10381;SDS011;11635;53.636;10.120;2022-12-18T06:38:50;19.07;;;13.23;;
10381;SDS011;11635;53.636;10.120;2022-12-18T06:41:19;20.27;;;13.10;;
10381;SDS011;11635;53.636;10.120;2022-12-18T06:43:46;17.73;;;12.37;;
10381;SDS011;11635;53.636;10.120;2022-12-18T06:46:13;21.20;;;13.40;;
10381;SDS011;11635;53.636;10.120;2022-12-18T06:48:40;18.43;;;12.63;;
10381;SDS011;11635;53.636;10.120;2022-12-18T06:51:06;21.20;;;12.87;;
10381;SDS011;11635;53.636;10.120;2022-12-18T06:53:33;21.30;;;13.00;;
10381;SDS011;11635;53.636;10.120;2022-12-18T06:56:00;19.00;;;12.43;;
10381;SDS011;11635;53.636;10.120;2022-12-18T06:58:29;21.27;;;13.13;;
10381;SDS011;11635;53.636;10.120;2022-12-18T07:00:59;19.93;;;13.30;;
10381;SDS011;11635;53.636;10.120;2022-12-18T07:03:25;21.40;;;13.23;;
10381;SDS011;11635;53.636;10.120;2022-12-18T07:05:51;20.97;;;13.83;;
10381;SDS011;11635;53.636;10.120;2022-12-18T07:08:18;23.13;;;13.00;;
10381;SDS011;11635;53.636;10.120;2022-12-18T07:10:45;23.50;;;14.97;;
10381;SDS011;11635;53.636;10.120;2022-12-18T07:13:11;22.13;;;12.67;;
10381;SDS011;11635;53.636;10.120;2022-12-18T07:15:39;22.57;;;13.70;;
10381;SDS011;11635;53.636;10.120;2022-12-18T07:18:06;18.20;;;12.57;;
10381;SDS011;11635;53.636;10.120;2022-12-18T07:20:32;19.57;;;13.20;;
10381;SDS011;11635;53.636;10.120;2022-12-18T07:22:59;20.93;;;13.60;;
10381;SDS011;11635;53.636;10.120;2022-12-18T07:25:27;21.27;;;13.17;;
10381;SDS011;11635;53.636;10.120;2022-12-18T07:27:54;18.43;;;12.80;;
10381;SDS011;11635;53.636;10.120;2022-12-18T07:30:20;19.40;;;12.50;;
10381;SDS011;11635;53.636;10.120;2022-12-18T07:32:53;20.77;;;14.03;;
10381;SDS011;11635;53.636;10.120;2022-12-18T07:35:19;21.60;;;13.93;;
10381;SDS011;11635;53.636;10.120;2022-12-18T07:37:46;20.03;;;12.73;;
10381;SDS011;11635;53.636;10.120;2022-12-18T07:40:13;23.00;;;13.90;;
10381;SDS011;11635;53.636;10.120;2022-12-18T07:42:40;18.37;;;13.87;;
10381;SDS011;11635;53.636;10.120;2022-12-18T07:45:06;22.00;;;14.40;;
10381;SDS011;11635;53.636;10.120;2022-12-18T07:47:34;20.03;;;14.40;;
10381;SDS011;11635;53.636;10.120;2022-12-18T07:50:04;20.20;;;13.93;;
10381;SDS011;11635;53.636;10.120;2022-12-18T07:52:31;23.87;;;14.70;;
10381;SDS011;11635;53.636;10.120;2022-12-18T07:54:58;19.00;;;14.10;;
10381;SDS011;11635;53.636;10.120;2022-12-18T07:57:25;20.23;;;14.07;;
10381;SDS011;11635;53.636;10.120;2022-12-18T07:59:52;20.87;;;14.30;;
10381;SDS011;11635;53.636;10.120;2022-12-18T08:02:19;21.57;;;13.20;;
10381;SDS011;11635;53.636;10.120;2022-12-18T08:04:45;22.90;;;13.20;;
10381;SDS011;11635;53.636;10.120;2022-12-18T08:07:14;23.97;;;13.80;;
10381;SDS011;11635;53.636;10.120;2022-12-18T08:09:47;23.67;;;14.70;;
10381;SDS011;11635;53.636;10.120;2022-12-18T08:12:13;21.83;;;15.20;;
10381;SDS011;11635;53.636;10.120;2022-12-18T08:14:41;20.67;;;13.57;;
10381;SDS011;11635;53.636;10.120;2022-12-18T08:17:11;21.20;;;14.20;;
10381;SDS011;11635;53.636;10.120;2022-12-18T08:19:39;19.40;;;14.17;;
10381;SDS011;11635;53.636;10.120;2022-12-18T08:22:06;25.83;;;14.83;;
10381;SDS011;11635;53.636;10.120;2022-12-18T08:24:35;21.33;;;14.63;;
10381;SDS011;11635;53.636;10.120;2022-12-18T08:27:01;18.33;;;12.87;;
10381;SDS011;11635;53.636;10.120;2022-12-18T08:29:28;22.10;;;14.27;;
10381;SDS011;11635;53.636;10.120;2022-12-18T08:31:57;18.57;;;13.23;;
10381;SDS011;11635;53.636;10.120;2022-12-18T08:34:24;21.10;;;13.73;;
10381;SDS011;11635;53.636;10.120;2022-12-18T08:36:52;21.67;;;13.33;;
10381;SDS011;11635;53.636;10.120;2022-12-18T08:39:23;19.67;;;13.87;;
10381;SDS011;11635;53.636;10.120;2022-12-18T08:41:55;21.40;;;13.80;;
10381;SDS011;11635;53.636;10.120;2022-12-18T08:44:39;21.53;;;13.33;;
10381;SDS011;11635;53.636;10.120;2022-12-18T08:47:07;20.37;;;13.63;;
10381;SDS011;11635;53.636;10.120;2022-12-18T08:49:34;19.77;;;13.73;;
10381;SDS011;11635;53.636;10.120;2022-12-18T08:52:01;20.13;;;12.57;;
10381;SDS011;11635;53.636;10.120;2022-12-18T08:54:29;21.97;;;13.83;;
10381;SDS011;11635;53.636;10.120;2022-12-18T08:56:57;18.57;;;13.43;;
10381;SDS011;11635;53.636;10.120;2022-12-18T08:59:24;20.03;;;13.53;;
10381;SDS011;11635;53.636;10.120;2022-12-18T09:02:00;23.53;;;14.60;;
10381;SDS011;11635;53.636;10.120;2022-12-18T09:04:30;20.20;;;13.63;;
10381;SDS011;11635;53.636;10.120;2022-12-18T09:07:01;20.53;;;13.80;;
10381;SDS011;11635;53.636;10.120;2022-12-18T09:11:56;20.23;;;13.93;;
10381;SDS011;11635;53.636;10.120;2022-12-18T09:14:23;23.23;;;14.03;;
10381;SDS011;11635;53.636;10.120;2022-12-18T09:16:49;20.53;;;13.50;;
10381;SDS011;11635;53.636;10.120;2022-12-18T09:19:15;23.23;;;13.93;;
10381;SDS011;11635;53.636;10.120;2022-12-18T09:21:41;22.13;;;13.33;;
10381;SDS011;11635;53.636;10.120;2022-12-18T09:24:08;20.43;;;12.93;;
10381;SDS011;11635;53.636;10.120;2022-12-18T09:26:37;22.37;;;13.93;;
10381;SDS011;11635;53.636;10.120;2022-12-18T09:29:05;19.07;;;12.53;;
10381;SDS011;11635;53.636;10.120;2022-12-18T09:31:32;19.70;;;12.30;;
10381;SDS011;11635;53.636;10.120;2022-12-18T09:33:59;22.20;;;13.80;;
10381;SDS011;11635;53.636;10.120;2022-12-18T09:36:25;21.40;;;13.27;;
10381;SDS011;11635;53.636;10.120;2022-12-18T09:38:51;19.77;;;12.63;;
10381;SDS011;11635;53.636;10.120;2022-12-18T09:41:24;23.23;;;13.03;;
10381;SDS011;11635;53.636;10.120;2022-12-18T09:43:53;19.83;;;12.83;;
10381;SDS011;11635;53.636;10.120;2022-12-18T09:46:23;17.93;;;11.93;;
10381;SDS011;11635;53.636;10.120;2022-12-18T09:48:52;18.67;;;12.63;;
10381;SDS011;11635;53.636;10.120;2022-12-18T09:51:21;22.90;;;12.77;;
10381;SDS011;11635;53.636;10.120;2022-12-18T09:53:50;17.97;;;11.93;;
10381;SDS011;11635;53.636;10.120;2022-12-18T09:56:18;21.33;;;13.13;;
10381;SDS011;11635;53.636;10.120;2022-12-18T09:58:48;18.87;;;12.27;;
10381;SDS011;11635;53.636;10.120;2022-12-18T10:01:20;21.10;;;13.37;;
10381;SDS011;11635;53.636;10.120;2022-12-18T10:03:48;19.03;;;11.77;;
10381;SDS011;11635;53.636;10.120;2022-12-18T10:06:18;16.17;;;11.27;;
10381;SDS011;11635;53.636;10.120;2022-12-18T10:08:46;15.13;;;11.13;;
10381;SDS011;11635;53.636;10.120;2022-12-18T10:11:28;19.80;;;12.07;;
10381;SDS011;11635;53.636;10.120;2022-12-18T10:14:00;17.33;;;11.17;;
10381;SDS011;11635;53.636;10.120;2022-12-18T10:16:29;18.83;;;11.93;;
10381;SDS011;11635;53.636;10.120;2022-12-18T10:19:07;16.43;;;10.67;;
10381;SDS011;11635;53.636;10.120;2022-12-18T10:21:39;16.13;;;11.33;;
10381;SDS011;11635;53.636;10.120;2022-12-18T10:24:13;15.33;;;10.83;;
10381;SDS011;11635;53.636;10.120;2022-12-18T10:26:42;18.27;;;11.50;;
10381;SDS011;11635;53.636;10.120;2022-12-18T10:29:09;18.40;;;11.63;;
10381;SDS011;11635;53.636;10.120;2022-12-18T10:31:37;20.40;;;11.80;;
10381;SDS011;11635;53.636;10.120;2022-12-18T10:34:07;18.40;;;11.23;;
10381;SDS011;11635;53.636;10.120;2022-12-18T10:36:34;17.57;;;11.20;;
10381;SDS011;11635;53.636;10.120;2022-12-18T10:39:07;19.43;;;11.17;;
10381;SDS011;11635;53.636;10.120;2022-12-18T10:41:40;15.27;;;11.10;;
10381;SDS011;11635;53.636;10.120;2022-12-18T10:44:15;16.33;;;10.83;;
10381;SDS011;11635;53.636;10.120;2022-12-18T10:46:42;18.63;;;11.97;;
10381;SDS011;11635;53.636;10.120;2022-12-18T10:49:19;18.73;;;11.63;;
10381;SDS011;11635;53.636;10.120;2022-12-18T10:51:47;19.57;;;12.40;;
10381;SDS011;11635;53.636;10.120;2022-12-18T10:54:14;18.20;;;12.13;;
10381;SDS011;11635;53.636;10.120;2022-12-18T10:56:41;16.83;;;11.80;;
10381;SDS011;11635;53.636;10.120;2022-12-18T10:59:08;18.50;;;11.63;;
10381;SDS011;11635;53.636;10.120;2022-12-18T11:01:45;19.07;;;11.97;;
10381;SDS011;11635;53.636;10.120;2022-12-18T11:04:13;19.63;;;12.07;;
10381;SDS011;11635;53.636;10.120;2022-12-18T11:06:53;19.40;;;12.20;;
10381;SDS011;11635;53.636;10.120;2022-12-18T11:09:21;17.57;;;11.20;;
10381;SDS011;11635;53.636;10.120;2022-12-18T11:11:48;17.43;;;11.77;;
10381;SDS011;11635;53.636;10.120;2022-12-18T11:14:15;20.10;;;12.00;;
10381;SDS011;11635;53.636;10.120;2022-12-18T11:16:43;17.97;;;11.97;;
10381;SDS011;11635;53.636;10.120;2022-12-18T11:19:17;15.73;;;11.03;;
10381;SDS011;11635;53.636;10.120;2022-12-18T11:21:45;18.93;;;11.77;;
10381;SDS011;11635;53.636;10.120;2022-12-18T11:24:17;18.17;;;11.23;;
10381;SDS011;11635;53.636;10.120;2022-12-18T11:26:45;18.83;;;11.27;;
10381;SDS011;11635;53.636;10.120;2022-12-18T11:29:16;17.43;;;10.90;;
10381;SDS011;11635;53.636;10.120;2022-12-18T11:31:43;16.00;;;11.07;;
10381;SDS011;11635;53.636;10.120;2022-12-18T11:34:10;21.07;;;11.60;;
10381;SDS011;11635;53.636;10.120;2022-12-18T11:36:39;16.50;;;10.90;;
10381;SDS011;11635;53.636;10.120;2022-12-18T11:39:09;18.33;;;11.17;;
10381;SDS011;11635;53.636;10.120;2022-12-18T11:41:39;16.13;;;10.63;;
10381;SDS011;11635;53.636;10.120;2022-12-18T11:44:26;16.50;;;11.27;;
10381;SDS011;11635;53.636;10.120;2022-12-18T11:46:55;17.30;;;12.13;;
10381;SDS011;11635;53.636;10.120;2022-12-18T11:49:24;15.83;;;10.90;;
10381;SDS011;11635;53.636;10.120;2022-12-18T11:51:52;17.90;;;12.33;;
10381;SDS011;11635;53.636;10.120;2022-12-18T11:54:19;19.13;;;11.77;;
10381;SDS011;11635;53.636;10.120;2022-12-18T11:56:48;17.93;;;11.70;;
10381;SDS011;11635;53.636;10.120;2022-12-18T11:59:17;21.53;;;12.50;;
10381;SDS011;11635;53.636;10.120;2022-12-18T12:01:47;17.27;;;11.93;;
10381;SDS011;11635;53.636;10.120;2022-12-18T12:04:31;16.27;;;11.10;;
10381;SDS011;11635;53.636;10.120;2022-12-18T12:07:03;17.50;;;11.83;;
10381;SDS011;11635;53.636;10.120;2022-12-18T12:09:33;17.42;;;11.82;;
10381;SDS011;11635;53.636;10.120;2022-12-18T12:12:10;17.57;;;11.40;;
10381;SDS011;11635;53.636;10.120;2022-12-18T12:14:43;22.43;;;12.87;;
10381;SDS011;11635;53.636;10.120;2022-12-18T12:17:14;21.83;;;13.40;;
10381;SDS011;11635;53.636;10.120;2022-12-18T12:19:44;22.60;;;13.13;;
10381;SDS011;11635;53.636;10.120;2022-12-18T12:22:13;20.53;;;12.50;;
10381;SDS011;11635;53.636;10.120;2022-12-18T12:24:46;22.77;;;13.03;;
10381;SDS011;11635;53.636;10.120;2022-12-18T12:27:17;21.03;;;12.93;;
10381;SDS011;11635;53.636;10.120;2022-12-18T12:29:48;19.80;;;13.20;;
10381;SDS011;11635;53.636;10.120;2022-12-18T12:32:21;20.87;;;13.07;;
10381;SDS011;11635;53.636;10.120;2022-12-18T12:34:51;19.80;;;12.48;;
10381;SDS011;11635;53.636;10.120;2022-12-18T12:37:24;24.43;;;13.13;;
10381;SDS011;11635;53.636;10.120;2022-12-18T12:39:55;20.03;;;13.00;;
10381;SDS011;11635;53.636;10.120;2022-12-18T12:42:26;22.60;;;13.57;;
10381;SDS011;11635;53.636;10.120;2022-12-18T12:45:14;21.57;;;13.73;;
10381;SDS011;11635;53.636;10.120;2022-12-18T12:47:42;18.90;;;12.07;;
10381;SDS011;11635;53.636;10.120;2022-12-18T12:50:13;22.90;;;13.87;;
10381;SDS011;11635;53.636;10.120;2022-12-18T12:52:41;21.20;;;13.73;;
10381;SDS011;11635;53.636;10.120;2022-12-18T12:55:13;21.93;;;13.33;;
10381;SDS011;11635;53.636;10.120;2022-12-18T12:57:43;21.97;;;13.10;;
10381;SDS011;11635;53.636;10.120;2022-12-18T13:00:11;21.20;;;13.30;;
10381;SDS011;11635;53.636;10.120;2022-12-18T13:02:39;19.87;;;12.17;;
10381;SDS011;11635;53.636;10.120;2022-12-18T13:05:10;19.13;;;12.10;;
10381;SDS011;11635;53.636;10.120;2022-12-18T13:07:41;20.20;;;12.60;;
10381;SDS011;11635;53.636;10.120;2022-12-18T13:10:12;21.10;;;13.60;;
10381;SDS011;11635;53.636;10.120;2022-12-18T13:12:52;21.33;;;13.50;;
10381;SDS011;11635;53.636;10.120;2022-12-18T13:15:25;22.73;;;12.53;;
10381;SDS011;11635;53.636;10.120;2022-12-18T13:20:38;24.33;;;13.97;;
10381;SDS011;11635;53.636;10.120;2022-12-18T13:23:19;19.98;;;13.05;;
10381;SDS011;11635;53.636;10.120;2022-12-18T13:25:45;26.43;;;14.60;;
10381;SDS011;11635;53.636;10.120;2022-12-18T13:28:13;23.80;;;15.43;;
10381;SDS011;11635;53.636;10.120;2022-12-18T13:30:42;23.83;;;14.43;;
10381;SDS011;11635;53.636;10.120;2022-12-18T13:36:00;25.27;;;14.27;;
10381;SDS011;11635;53.636;10.120;2022-12-18T13:38:32;26.07;;;14.33;;
10381;SDS011;11635;53.636;10.120;2022-12-18T13:40:59;24.10;;;14.67;;
10381;SDS011;11635;53.636;10.120;2022-12-18T13:43:31;27.27;;;16.50;;
10381;SDS011;11635;53.636;10.120;2022-12-18T13:45:59;24.30;;;14.03;;
10381;SDS011;11635;53.636;10.120;2022-12-18T13:48:26;26.90;;;15.73;;
10381;SDS011;11635;53.636;10.120;2022-12-18T13:50:55;24.53;;;14.33;;
10381;SDS011;11635;53.636;10.120;2022-12-18T13:53:23;26.13;;;14.47;;
10381;SDS011;11635;53.636;10.120;2022-12-18T13:55:51;27.00;;;16.33;;
10381;SDS011;11635;53.636;10.120;2022-12-18T13:58:17;27.23;;;15.37;;
10381;SDS011;11635;53.636;10.120;2022-12-18T14:00:45;25.00;;;14.80;;
10381;SDS011;11635;53.636;10.120;2022-12-18T14:03:21;26.90;;;15.77;;
10381;SDS011;11635;53.636;10.120;2022-12-18T14:05:52;27.30;;;15.93;;
10381;SDS011;11635;53.636;10.120;2022-12-18T14:08:19;27.70;;;16.23;;
10381;SDS011;11635;53.636;10.120;2022-12-18T14:10:46;28.17;;;15.77;;
10381;SDS011;11635;53.636;10.120;2022-12-18T14:13:15;27.50;;;14.57;;
10381;SDS011;11635;53.636;10.120;2022-12-18T14:15:42;28.53;;;15.73;;
10381;SDS011;11635;53.636;10.120;2022-12-18T14:18:15;26.40;;;14.60;;
10381;SDS011;11635;53.636;10.120;2022-12-18T14:20:44;29.33;;;16.40;;
10381;SDS011;11635;53.636;10.120;2022-12-18T14:25:54;29.97;;;16.37;;
10381;SDS011;11635;53.636;10.120;2022-12-18T14:28:21;29.33;;;16.63;;
10381;SDS011;11635;53.636;10.120;2022-12-18T14:30:47;31.50;;;17.10;;
10381;SDS011;11635;53.636;10.120;2022-12-18T14:33:16;27.57;;;17.43;;